createdAt,value
2018-02-23T16:03:36.227Z,1.40
2018-02-23T16:09:42.115Z,1.30
2018-02-23T16:15:48.290Z,0.80
2018-02-23T16:21:54.326Z,0.40
2018-02-23T16:27:59.443Z,0.40
2018-02-23T16:34:04.158Z,0.10
2018-02-23T16:40:09.052Z,-0.10
2018-02-23T16:46:14.244Z,-0.30
2018-02-23T16:52:19.988Z,-0.40
2018-02-23T16:58:24.758Z,-0.50
2018-02-23T17:04:29.532Z,-0.70
2018-02-23T17:10:34.144Z,-0.80
2018-02-23T17:16:40.117Z,-1.10
2018-02-23T17:22:44.870Z,-1.10
2018-02-23T17:28:52.326Z,-1.10
2018-02-23T17:34:57.171Z,-1.30
2018-02-23T17:41:02.450Z,-1.40
2018-02-23T17:47:07.217Z,-1.40
2018-02-23T17:53:12.289Z,-1.50
2018-02-23T17:59:17.094Z,-1.50
2018-02-23T18:05:26.002Z,-1.50
2018-02-23T18:11:30.628Z,-1.70
2018-02-23T18:17:35.419Z,-1.80
2018-02-23T18:23:40.260Z,-1.80
2018-02-23T18:29:46.153Z,-1.90
2018-02-23T18:35:52.513Z,-1.90
2018-02-23T18:41:57.835Z,-2.10
2018-02-23T18:48:04.847Z,-2.50
2018-02-23T18:54:09.646Z,-2.50
2018-02-23T19:00:15.195Z,-2.50
2018-02-23T19:06:20.106Z,-2.50
2018-02-23T19:12:24.794Z,-2.40
2018-02-23T19:18:30.360Z,-2.50
2018-02-23T19:24:35.032Z,-2.50
2018-02-23T19:30:39.735Z,-2.40
2018-02-23T19:36:44.335Z,-2.30
2018-02-23T19:42:50.947Z,-2.30
2018-02-23T19:48:56.858Z,-2.30
2018-02-23T19:55:01.532Z,-2.40
2018-02-23T20:01:06.516Z,-2.40
2018-02-23T20:07:11.397Z,-2.50
2018-02-23T20:13:16.862Z,-2.50
2018-02-23T20:19:23.347Z,-2.60
2018-02-23T20:25:28.112Z,-2.70
2018-02-23T20:31:32.808Z,-2.90
2018-02-23T20:37:39.074Z,-3.00
2018-02-23T20:43:44.713Z,-3.10
2018-02-23T20:49:50.773Z,-3.20
2018-02-23T20:55:56.440Z,-3.30
2018-02-23T21:02:01.477Z,-3.60
2018-02-23T21:08:06.268Z,-3.70
2018-02-23T21:14:11.200Z,-3.70
2018-02-23T21:20:15.954Z,-3.70
2018-02-23T21:26:20.939Z,-3.80
2018-02-23T21:32:26.088Z,-4.00
2018-02-23T21:38:30.736Z,-4.20
2018-02-23T21:44:48.151Z,-4.10
2018-02-23T21:50:53.161Z,-4.20
2018-02-23T21:56:58.742Z,-4.00
2018-02-23T22:03:03.428Z,-4.00
2018-02-23T22:09:09.723Z,-3.90
2018-02-23T22:15:14.461Z,-3.80
2018-02-23T22:21:20.023Z,-4.10
2018-02-23T22:27:25.386Z,-4.10
2018-02-23T22:33:30.081Z,-4.30
2018-02-23T22:39:34.806Z,-4.50
2018-02-23T22:45:40.200Z,-4.70
2018-02-23T22:51:46.024Z,-4.80
2018-02-23T22:57:51.568Z,-4.80
2018-02-23T23:03:56.474Z,-4.80
2018-02-23T23:10:01.097Z,-4.80
2018-02-23T23:16:07.236Z,-4.80
2018-02-23T23:22:12.096Z,-4.90
2018-02-23T23:28:17.051Z,-4.80
2018-02-23T23:34:23.488Z,-4.90
2018-02-23T23:40:28.869Z,-5.00
2018-02-23T23:46:33.588Z,-5.00
2018-02-23T23:52:38.365Z,-5.10
2018-02-23T23:58:44.852Z,-5.00
